createdAt,value
2023-01-29T00:00:20.362Z,100614.94
2023-01-29T00:02:50.547Z,100615.81
2023-01-29T00:05:27.917Z,100610.75
2023-01-29T00:07:57.899Z,100616.66
2023-01-29T00:10:27.573Z,100609.06
2023-01-29T00:12:58.198Z,100603.19
2023-01-29T00:15:26.827Z,100602.31
2023-01-29T00:17:56.917Z,100594.72
2023-01-29T00:20:25.527Z,100593.94
2023-01-29T00:22:54.179Z,100600.69
2023-01-29T00:25:22.841Z,100603.22
2023-01-29T00:27:51.699Z,100609.19
2023-01-29T00:30:21.406Z,100603.25
2023-01-29T00:32:50.090Z,100607.47
2023-01-29T00:35:20.242Z,100608.28
2023-01-29T00:37:48.940Z,100603.22
2023-01-29T00:40:18.945Z,100608.31
2023-01-29T00:43:05.118Z,100599.06
2023-01-29T00:45:34.191Z,100606.66
2023-01-29T00:48:02.898Z,100604.13
2023-01-29T00:50:33.610Z,100603.31
2023-01-29T00:53:02.209Z,100608.38
2023-01-29T00:55:31.447Z,100612.59
2023-01-29T00:58:00.112Z,100606.66
2023-01-29T01:00:28.718Z,100620.97
2023-01-29T01:03:05.609Z,100624.38
2023-01-29T01:05:37.069Z,100618.44
2023-01-29T01:08:27.723Z,100626.91
2023-01-29T01:11:04.513Z,100623.50
2023-01-29T01:13:34.284Z,100624.38
2023-01-29T01:16:03.543Z,100624.41
2023-01-29T01:18:32.708Z,100618.53
2023-01-29T01:21:02.867Z,100616.84
2023-01-29T01:23:31.682Z,100619.38
2023-01-29T01:26:00.351Z,100610.97
2023-01-29T01:28:29.762Z,100609.22
2023-01-29T01:30:58.471Z,100612.59
2023-01-29T01:33:27.233Z,100606.66
2023-01-29T01:35:56.351Z,100603.31
2023-01-29T01:38:26.345Z,100601.59
2023-01-29T01:40:54.924Z,100605.78
2023-01-29T01:43:23.651Z,100610.84
2023-01-29T01:45:52.294Z,100614.25
2023-01-29T01:48:25.619Z,100603.31
2023-01-29T01:51:00.726Z,100602.47
2023-01-29T01:53:37.579Z,100602.47
2023-01-29T01:56:14.725Z,100600.00
2023-01-29T01:58:50.519Z,100602.50
2023-01-29T02:01:21.399Z,100605.03
2023-01-29T02:04:15.138Z,100594.94
2023-01-29T02:07:02.016Z,100590.75
2023-01-29T02:09:37.940Z,100592.47
2023-01-29T02:12:10.176Z,100586.59
2023-01-29T02:14:40.848Z,100588.34
2023-01-29T02:17:13.736Z,100588.34
2023-01-29T02:19:49.642Z,100584.19
2023-01-29T02:22:47.245Z,100581.69
2023-01-29T02:26:00.838Z,100574.22
2023-01-29T02:28:41.298Z,100570.03
2023-01-29T02:31:18.610Z,100570.03
2023-01-29T02:33:59.969Z,100569.19
2023-01-29T02:36:37.166Z,100563.34
2023-01-29T02:39:17.883Z,100565.09
2023-01-29T02:41:52.491Z,100560.94
2023-01-29T02:44:31.753Z,100551.72
2023-01-29T02:47:06.299Z,100554.28
2023-01-29T02:49:38.693Z,100561.06
2023-01-29T02:52:15.484Z,100555.22
2023-01-29T02:54:50.669Z,100561.97
2023-01-29T02:57:23.941Z,100570.47
2023-01-29T02:59:58.641Z,100567.09
2023-01-29T03:02:35.071Z,100566.28
2023-01-29T03:05:11.473Z,100572.25
2023-01-29T03:07:49.851Z,100573.97
2023-01-29T03:10:36.614Z,100584.13
2023-01-29T03:13:22.141Z,100579.13
2023-01-29T03:16:01.609Z,100566.50
2023-01-29T03:18:56.273Z,100570.78
2023-01-29T03:21:49.645Z,100580.09
2023-01-29T03:24:41.190Z,100591.13
2023-01-29T03:27:30.701Z,100590.28
2023-01-29T03:30:19.414Z,100594.53
2023-01-29T03:33:06.854Z,100603.00
2023-01-29T03:35:40.073Z,100608.09
2023-01-29T03:38:11.541Z,100608.91
2023-01-29T03:40:50.712Z,100607.28
2023-01-29T03:43:33.368Z,100606.47
2023-01-29T03:46:09.830Z,100599.72
2023-01-29T03:48:48.352Z,100596.34
2023-01-29T03:51:26.685Z,100607.31
2023-01-29T03:54:05.897Z,100602.25
2023-01-29T03:56:46.774Z,100614.03
2023-01-29T03:59:26.517Z,100609.03
2023-01-29T04:02:28.068Z,100609.00
2023-01-29T04:05:12.060Z,100618.25
2023-01-29T04:07:56.132Z,100619.03
2023-01-29T04:10:28.844Z,100628.31
2023-01-29T04:13:03.476Z,100622.38
2023-01-29T04:15:40.357Z,100612.25
2023-01-29T04:18:09.128Z,100604.66
2023-01-29T04:20:59.358Z,100613.94
2023-01-29T04:23:29.285Z,100597.09
2023-01-29T04:26:23.043Z,100588.69
2023-01-29T04:29:13.698Z,100585.38
2023-01-29T04:31:53.555Z,100590.44
2023-01-29T04:34:29.189Z,100603.94
2023-01-29T04:37:14.074Z,100599.72
2023-01-29T04:39:51.155Z,100603.06
2023-01-29T04:42:31.493Z,100601.38
2023-01-29T04:45:09.095Z,100603.88
2023-01-29T04:47:49.307Z,100589.53
2023-01-29T04:50:26.199Z,100581.94
2023-01-29T04:53:05.289Z,100572.66
2023-01-29T04:55:41.854Z,100565.09
2023-01-29T04:58:18.361Z,100550.81
2023-01-29T05:00:50.523Z,100546.63
2023-01-29T05:03:19.230Z,100565.16
2023-01-29T05:05:50.325Z,100563.47
2023-01-29T05:08:24.541Z,100549.97
2023-01-29T05:10:55.408Z,100548.34
2023-01-29T05:13:25.262Z,100561.00
2023-01-29T05:15:59.125Z,100567.75
2023-01-29T05:18:28.007Z,100562.72
2023-01-29T05:20:58.825Z,100572.03
2023-01-29T05:23:28.930Z,100578.78
2023-01-29T05:25:59.043Z,100582.19
2023-01-29T05:28:26.630Z,100583.88
2023-01-29T05:30:57.538Z,100589.81
2023-01-29T05:33:29.225Z,100595.72
2023-01-29T05:36:00.411Z,100599.09
2023-01-29T05:38:30.397Z,100608.41
2023-01-29T05:41:00.373Z,100600.78
2023-01-29T05:43:28.999Z,100596.53
2023-01-29T05:45:59.710Z,100590.66
2023-01-29T05:48:32.211Z,100594.06
2023-01-29T05:51:02.300Z,100582.22
2023-01-29T05:53:33.513Z,100582.22
2023-01-29T05:56:03.413Z,100573.81
2023-01-29T05:58:32.868Z,100573.81
2023-01-29T06:01:11.011Z,100578.88
2023-01-29T06:03:39.664Z,100580.63
2023-01-29T06:06:09.208Z,100575.56
2023-01-29T06:08:39.548Z,100573.03
2023-01-29T06:11:10.393Z,100588.22
2023-01-29T06:13:39.323Z,100593.25
2023-01-29T06:16:09.916Z,100600.84
2023-01-29T06:18:39.768Z,100607.59
2023-01-29T06:21:10.192Z,100605.91
2023-01-29T06:23:40.353Z,100609.22
2023-01-29T06:26:12.353Z,100603.31
2023-01-29T06:28:41.363Z,100594.84
2023-01-29T06:31:30.383Z,100585.50
2023-01-29T06:33:59.899Z,100584.63
2023-01-29T06:36:28.665Z,100578.72
2023-01-29T06:38:58.653Z,100578.69
2023-01-29T06:41:27.518Z,100576.16
2023-01-29T06:43:56.459Z,100570.25
2023-01-29T06:46:25.121Z,100578.66
2023-01-29T06:48:54.813Z,100568.56
2023-01-29T06:51:23.552Z,100561.81
2023-01-29T06:53:54.473Z,100566.00
2023-01-29T06:56:25.447Z,100582.03
2023-01-29T06:58:54.133Z,100585.44
2023-01-29T07:01:35.299Z,100587.94
2023-01-29T07:04:05.331Z,100597.19
2023-01-29T07:06:34.201Z,100592.16
2023-01-29T07:09:02.984Z,100588.84
2023-01-29T07:11:33.461Z,100589.69
2023-01-29T07:14:02.052Z,100593.94
2023-01-29T07:16:30.960Z,100590.56
2023-01-29T07:18:59.588Z,100587.22
2023-01-29T07:21:28.334Z,100589.75
2023-01-29T07:23:57.048Z,100581.31
2023-01-29T07:26:25.708Z,100586.41
2023-01-29T07:28:55.730Z,100583.06
2023-01-29T07:31:24.469Z,100589.00
2023-01-29T07:33:53.188Z,100592.38
2023-01-29T07:36:21.785Z,100590.75
2023-01-29T07:38:51.492Z,100596.66
2023-01-29T07:41:20.593Z,100604.22
2023-01-29T07:43:49.674Z,100600.84
2023-01-29T07:46:19.657Z,100597.47
2023-01-29T07:48:48.245Z,100605.03
2023-01-29T07:51:18.265Z,100617.66
2023-01-29T07:53:47.260Z,100621.88
2023-01-29T07:56:15.879Z,100624.38
2023-01-29T07:58:44.524Z,100626.06
2023-01-29T08:01:13.278Z,100621.84
2023-01-29T08:03:43.480Z,100615.09
2023-01-29T08:06:12.305Z,100629.44
2023-01-29T08:08:40.977Z,100627.75
2023-01-29T08:11:09.879Z,100630.28
2023-01-29T08:13:38.506Z,100618.38
2023-01-29T08:16:08.575Z,100612.47
2023-01-29T08:18:38.572Z,100617.50
2023-01-29T08:21:08.665Z,100609.06
2023-01-29T08:23:37.316Z,100614.91
2023-01-29T08:26:06.814Z,100610.66
2023-01-29T08:28:35.988Z,100604.75
2023-01-29T08:31:04.712Z,100619.84
2023-01-29T08:33:39.047Z,100620.66
2023-01-29T08:36:11.515Z,100624.00
2023-01-29T08:38:40.501Z,100634.91
2023-01-29T08:41:09.794Z,100633.19
2023-01-29T08:43:38.732Z,100637.38
2023-01-29T08:46:08.673Z,100644.91
2023-01-29T08:48:37.398Z,100652.44
2023-01-29T08:51:06.686Z,100649.06
2023-01-29T08:53:36.765Z,100646.50
2023-01-29T08:56:05.941Z,100621.16
2023-01-29T08:58:34.694Z,100612.69
2023-01-29T09:01:10.839Z,100596.59
2023-01-29T09:03:41.154Z,100583.88
2023-01-29T09:06:11.586Z,100572.03
2023-01-29T09:08:41.953Z,100557.63
2023-01-29T09:11:10.712Z,100560.00
2023-01-29T09:13:39.486Z,100558.28
2023-01-29T09:16:09.043Z,100569.19
2023-01-29T09:18:37.795Z,100567.44
2023-01-29T09:21:07.026Z,100569.88
2023-01-29T09:23:35.711Z,100574.88
2023-01-29T09:26:06.223Z,100579.00
2023-01-29T09:28:34.910Z,100585.72
2023-01-29T09:31:04.348Z,100590.75
2023-01-29T09:33:33.643Z,100596.59
2023-01-29T09:36:05.250Z,100604.13
2023-01-29T09:38:33.926Z,100606.59
2023-01-29T09:41:20.469Z,100609.91
2023-01-29T09:43:53.141Z,100611.56
2023-01-29T09:46:29.077Z,100610.66
2023-01-29T09:49:05.065Z,100615.72
2023-01-29T09:51:39.118Z,100617.41
2023-01-29T09:54:19.064Z,100614.00
2023-01-29T09:56:52.392Z,100624.97
2023-01-29T09:59:26.434Z,100631.69
2023-01-29T10:02:09.945Z,100630.03
2023-01-29T10:05:08.176Z,100641.00
2023-01-29T10:08:05.055Z,100646.06
2023-01-29T10:10:46.189Z,100648.59
2023-01-29T10:13:28.992Z,100648.59
2023-01-29T10:16:30.380Z,100643.53
2023-01-29T10:19:43.035Z,100634.28
2023-01-29T10:22:58.357Z,100627.59
2023-01-29T10:25:27.008Z,100627.59
2023-01-29T10:27:59.137Z,100620.00
2023-01-29T10:30:35.273Z,100614.06
2023-01-29T10:33:06.248Z,100608.16
2023-01-29T10:35:40.797Z,100593.78
2023-01-29T10:38:32.693Z,100588.72
2023-01-29T10:41:20.884Z,100590.41
2023-01-29T10:44:05.990Z,100580.31
2023-01-29T10:46:57.654Z,100576.97
2023-01-29T10:49:58.453Z,100569.38
2023-01-29T10:52:44.237Z,100572.72
2023-01-29T10:55:34.208Z,100573.53
2023-01-29T10:58:15.218Z,100559.19
2023-01-29T11:00:44.365Z,100563.38
2023-01-29T11:03:27.320Z,100541.44
2023-01-29T11:06:05.942Z,100548.19
2023-01-29T11:08:43.179Z,100543.91
2023-01-29T11:11:17.322Z,100549.75
2023-01-29T11:13:57.245Z,100558.16
2023-01-29T11:16:27.188Z,100553.84
2023-01-29T11:18:59.567Z,100547.03
2023-01-29T11:21:30.332Z,100543.59
2023-01-29T11:24:15.442Z,100536.81
2023-01-29T11:26:45.829Z,100530.03
2023-01-29T11:29:35.808Z,100528.31
2023-01-29T11:32:08.797Z,100513.97
2023-01-29T11:34:59.442Z,100509.72
2023-01-29T11:37:36.979Z,100501.31
2023-01-29T11:40:37.025Z,100498.75
2023-01-29T11:43:31.325Z,100488.59
2023-01-29T11:46:05.082Z,100475.91
2023-01-29T11:48:42.856Z,100468.25
2023-01-29T11:51:22.953Z,100464.03
2023-01-29T11:53:55.064Z,100451.34
2023-01-29T11:56:29.463Z,100462.25
2023-01-29T11:58:59.983Z,100456.31
2023-01-29T12:01:36.274Z,100458.81
2023-01-29T12:04:15.996Z,100452.88
2023-01-29T12:06:52.000Z,100447.75
2023-01-29T12:09:24.217Z,100449.44
2023-01-29T12:11:53.245Z,100445.16
2023-01-29T12:14:34.069Z,100442.56
2023-01-29T12:17:07.625Z,100434.97
2023-01-29T12:19:43.802Z,100430.72
2023-01-29T12:22:21.813Z,100430.66
2023-01-29T12:24:57.509Z,100417.13
2023-01-29T12:27:35.377Z,100423.00
2023-01-29T12:30:16.494Z,100417.91
2023-01-29T12:32:55.606Z,100417.03
2023-01-29T12:35:30.752Z,100422.91
2023-01-29T12:38:05.296Z,100415.31
2023-01-29T12:40:41.710Z,100422.00
2023-01-29T12:43:17.617Z,100411.88
2023-01-29T12:45:52.820Z,100425.34
2023-01-29T12:48:29.150Z,100420.28
2023-01-29T12:51:06.299Z,100408.38
2023-01-29T12:53:41.033Z,100401.69
2023-01-29T12:56:14.406Z,100403.31
2023-01-29T12:58:47.908Z,100391.50
2023-01-29T13:01:25.376Z,100387.31
2023-01-29T13:04:00.899Z,100383.91
2023-01-29T13:06:35.600Z,100382.19
2023-01-29T13:09:10.970Z,100372.91
2023-01-29T13:11:43.830Z,100373.75
2023-01-29T13:14:21.682Z,100370.38
2023-01-29T13:16:54.167Z,100379.66
2023-01-29T13:19:28.391Z,100369.56
2023-01-29T13:22:00.919Z,100368.69
2023-01-29T13:24:38.701Z,100367.84
2023-01-29T13:27:07.938Z,100367.84
2023-01-29T13:29:36.879Z,100369.56
2023-01-29T13:32:07.074Z,100366.16
2023-01-29T13:34:38.730Z,100361.91
2023-01-29T13:37:14.063Z,100358.56
2023-01-29T13:39:51.890Z,100354.31
2023-01-29T13:42:23.569Z,100354.31
2023-01-29T13:44:54.777Z,100342.50
2023-01-29T13:47:27.811Z,100334.84
2023-01-29T13:50:00.965Z,100331.50
2023-01-29T13:52:39.903Z,100328.97
2023-01-29T13:55:26.317Z,100332.38
2023-01-29T13:57:57.319Z,100336.56
2023-01-29T14:01:01.124Z,100327.31
2023-01-29T14:04:04.784Z,100327.41
2023-01-29T14:06:50.416Z,100335.88
2023-01-29T14:10:02.755Z,100331.69
2023-01-29T14:12:40.934Z,100325.78
2023-01-29T14:15:33.876Z,100325.84
2023-01-29T14:18:19.925Z,100319.94
2023-01-29T14:21:04.535Z,100328.41
2023-01-29T14:23:52.642Z,100326.75
2023-01-29T14:26:30.274Z,100325.94
2023-01-29T14:29:09.403Z,100325.06
2023-01-29T14:31:43.723Z,100329.31
2023-01-29T14:34:25.512Z,100329.31
2023-01-29T14:36:57.525Z,100320.06
2023-01-29T14:39:34.548Z,100320.94
2023-01-29T14:42:14.772Z,100316.75
2023-01-29T14:45:01.188Z,100315.88
2023-01-29T14:48:06.853Z,100316.75
2023-01-29T14:50:51.686Z,100315.94
2023-01-29T14:53:31.448Z,100309.25
2023-01-29T14:56:04.493Z,100316.00
2023-01-29T14:58:40.590Z,100310.94
2023-01-29T15:01:24.656Z,100321.91
2023-01-29T15:03:55.114Z,100316.03
2023-01-29T15:06:34.608Z,100312.66
2023-01-29T15:09:13.942Z,100309.25
2023-01-29T15:11:52.377Z,100304.19
2023-01-29T15:14:32.987Z,100305.09
2023-01-29T15:17:18.666Z,100309.31
2023-01-29T15:19:49.577Z,100303.44
2023-01-29T15:22:19.855Z,100304.28
2023-01-29T15:25:03.900Z,100302.59
2023-01-29T15:27:33.186Z,100304.28
2023-01-29T15:30:05.941Z,100310.22
2023-01-29T15:32:39.144Z,100317.88
2023-01-29T15:35:11.853Z,100322.13
2023-01-29T15:37:41.710Z,100331.41
2023-01-29T15:40:17.906Z,100317.16
2023-01-29T15:42:49.053Z,100312.09
2023-01-29T15:45:27.472Z,100308.69
2023-01-29T15:48:05.568Z,100300.28
2023-01-29T15:50:38.337Z,100303.69
2023-01-29T15:53:14.251Z,100290.19
2023-01-29T15:55:43.169Z,100289.34
2023-01-29T15:58:18.492Z,100293.66
2023-01-29T16:00:52.064Z,100280.13
2023-01-29T16:03:25.157Z,100281.03
2023-01-29T16:05:54.652Z,100279.31
2023-01-29T16:08:25.181Z,100275.97
2023-01-29T16:11:00.134Z,100271.75
2023-01-29T16:13:31.840Z,100263.38
2023-01-29T16:16:02.871Z,100260.06
2023-01-29T16:18:36.531Z,100263.47
2023-01-29T16:21:12.902Z,100259.25
2023-01-29T16:23:45.739Z,100266.94
2023-01-29T16:26:19.993Z,100261.13
2023-01-29T16:28:49.474Z,100260.38
2023-01-29T16:31:25.219Z,100262.06
2023-01-29T16:33:56.626Z,100261.28
2023-01-29T16:36:28.097Z,100254.59
2023-01-29T16:39:01.157Z,100251.28
2023-01-29T16:41:32.476Z,100245.38
2023-01-29T16:44:03.557Z,100248.00
2023-01-29T16:46:37.551Z,100242.19
2023-01-29T16:49:50.959Z,100237.22
2023-01-29T16:52:25.192Z,100245.66
2023-01-29T16:55:01.473Z,100235.56
2023-01-29T16:57:33.804Z,100244.06
2023-01-29T17:00:08.690Z,100234.78
2023-01-29T17:02:40.640Z,100248.31
2023-01-29T17:05:22.938Z,100237.31
2023-01-29T17:07:52.166Z,100245.81
2023-01-29T17:10:22.839Z,100245.06
2023-01-29T17:12:57.667Z,100262.00
2023-01-29T17:15:37.539Z,100253.66
2023-01-29T17:18:19.498Z,100265.50
2023-01-29T17:20:50.153Z,100267.25
2023-01-29T17:23:18.997Z,100269.03
2023-01-29T17:25:48.567Z,100264.91
2023-01-29T17:28:19.339Z,100264.13
2023-01-29T17:31:00.282Z,100267.63
2023-01-29T17:33:42.532Z,100274.47
2023-01-29T17:36:15.641Z,100275.38
2023-01-29T17:38:44.735Z,100282.16
2023-01-29T17:41:21.135Z,100286.41
2023-01-29T17:43:50.121Z,100275.50
2023-01-29T17:46:20.077Z,100284.75
2023-01-29T17:48:49.449Z,100294.84
2023-01-29T17:51:19.942Z,100293.22
2023-01-29T17:53:48.614Z,100293.22
2023-01-29T17:56:19.215Z,100284.75
2023-01-29T17:58:47.867Z,100285.59
2023-01-29T18:01:16.533Z,100289.75
2023-01-29T18:03:45.378Z,100293.91
2023-01-29T18:06:24.701Z,100296.41
2023-01-29T18:08:53.304Z,100290.53
2023-01-29T18:11:22.096Z,100293.06
2023-01-29T18:13:50.768Z,100283.75
2023-01-29T18:16:21.997Z,100278.69
2023-01-29T18:18:51.546Z,100270.25
2023-01-29T18:21:21.575Z,100277.78
2023-01-29T18:23:50.234Z,100277.78
2023-01-29T18:26:19.173Z,100263.41
2023-01-29T18:28:47.890Z,100282.78
2023-01-29T18:31:16.517Z,100269.25
2023-01-29T18:33:45.305Z,100264.19
2023-01-29T18:36:14.331Z,100270.19
2023-01-29T18:38:44.435Z,100265.13
2023-01-29T18:41:13.195Z,100271.09
2023-01-29T18:43:43.052Z,100271.16
2023-01-29T18:46:14.592Z,100267.84
2023-01-29T18:48:43.223Z,100267.84
2023-01-29T18:51:12.285Z,100272.91
2023-01-29T18:53:40.994Z,100274.59
2023-01-29T18:56:12.410Z,100272.09
2023-01-29T18:58:41.251Z,100278.88
2023-01-29T19:01:12.025Z,100271.38
2023-01-29T19:03:42.396Z,100267.16
2023-01-29T19:06:12.742Z,100264.69
2023-01-29T19:08:43.031Z,100262.09
2023-01-29T19:11:13.095Z,100257.09
2023-01-29T19:13:42.917Z,100261.25
2023-01-29T19:16:13.554Z,100262.03
2023-01-29T19:18:42.493Z,100261.19
2023-01-29T19:21:13.173Z,100262.88
2023-01-29T19:23:42.273Z,100263.69
2023-01-29T19:26:13.536Z,100265.34
2023-01-29T19:28:42.491Z,100266.19
2023-01-29T19:31:11.440Z,100268.69
2023-01-29T19:33:40.297Z,100265.34
2023-01-29T19:36:09.792Z,100263.66
2023-01-29T19:38:38.938Z,100248.47
2023-01-29T19:41:07.597Z,100255.19
2023-01-29T19:43:40.746Z,100234.97
2023-01-29T19:46:10.390Z,100238.25
2023-01-29T19:48:39.214Z,100239.97
2023-01-29T19:51:10.200Z,100242.50
2023-01-29T19:53:40.204Z,100241.66
2023-01-29T19:56:11.221Z,100245.00
2023-01-29T19:58:41.746Z,100237.41
2023-01-29T20:01:17.129Z,100233.16
2023-01-29T20:03:47.695Z,100232.34
2023-01-29T20:06:18.947Z,100234.00
2023-01-29T20:08:47.870Z,100229.78
2023-01-29T20:11:17.275Z,100236.50
2023-01-29T20:13:49.664Z,100232.25
2023-01-29T20:16:19.721Z,100226.38
2023-01-29T20:18:48.445Z,100227.19
2023-01-29T20:21:22.090Z,100228.88
2023-01-29T20:23:52.188Z,100227.19
2023-01-29T20:26:21.838Z,100218.75
2023-01-29T20:28:53.143Z,100221.28
2023-01-29T20:31:21.789Z,100227.13
2023-01-29T20:33:50.614Z,100230.53
2023-01-29T20:36:19.224Z,100232.19
2023-01-29T20:38:48.115Z,100230.50
2023-01-29T20:41:19.266Z,100234.69
2023-01-29T20:43:50.249Z,100243.94
2023-01-29T20:46:20.702Z,100243.94
2023-01-29T20:48:53.173Z,100254.06
2023-01-29T20:51:21.971Z,100239.78
2023-01-29T20:53:50.774Z,100237.25
2023-01-29T20:56:32.230Z,100244.03
2023-01-29T20:59:07.851Z,100248.28
2023-01-29T21:01:38.238Z,100232.25
2023-01-29T21:04:07.189Z,100241.50
2023-01-29T21:06:35.925Z,100235.63
2023-01-29T21:09:04.763Z,100224.66
2023-01-29T21:11:33.658Z,100217.94
2023-01-29T21:14:02.421Z,100226.34
2023-01-29T21:16:31.339Z,100225.47
2023-01-29T21:19:01.563Z,100217.84
2023-01-29T21:21:30.261Z,100215.25
2023-01-29T21:23:59.291Z,100212.69
2023-01-29T21:26:28.046Z,100216.94
2023-01-29T21:28:56.891Z,100206.81
2023-01-29T21:31:25.543Z,100198.34
2023-01-29T21:33:54.238Z,100203.41
2023-01-29T21:36:24.233Z,100194.94
2023-01-29T21:38:52.826Z,100185.66
2023-01-29T21:41:41.792Z,100187.34
2023-01-29T21:44:09.682Z,100181.44
2023-01-29T21:46:38.336Z,100192.41
2023-01-29T21:49:07.117Z,100188.16
2023-01-29T21:51:37.050Z,100184.75
2023-01-29T21:54:05.954Z,100169.53
2023-01-29T21:56:34.621Z,100156.84
2023-01-29T21:59:03.297Z,100155.13
2023-01-29T22:01:38.101Z,100148.38
2023-01-29T22:04:09.785Z,100150.03
2023-01-29T22:06:39.782Z,100155.06
2023-01-29T22:09:08.604Z,100157.53
2023-01-29T22:11:37.377Z,100152.47
2023-01-29T22:14:06.066Z,100155.78
2023-01-29T22:16:34.819Z,100147.31
2023-01-29T22:19:03.555Z,100143.94
2023-01-29T22:21:33.511Z,100147.31
2023-01-29T22:24:06.183Z,100136.34
2023-01-29T22:26:35.882Z,100123.69
2023-01-29T22:29:04.736Z,100107.63
2023-01-29T22:31:33.377Z,100108.44
2023-01-29T22:34:02.042Z,100100.88
2023-01-29T22:36:30.685Z,100103.34
2023-01-29T22:38:59.463Z,100098.28
2023-01-29T22:41:29.773Z,100097.41
2023-01-29T22:43:58.388Z,100091.50
2023-01-29T22:46:27.401Z,100092.31
2023-01-29T22:48:56.676Z,100083.00
2023-01-29T22:51:25.592Z,100082.13
2023-01-29T22:53:56.173Z,100079.59
2023-01-29T22:56:27.737Z,100077.06
2023-01-29T22:59:00.225Z,100075.34
2023-01-29T23:01:31.349Z,100059.31
2023-01-29T23:04:00.107Z,100063.50
2023-01-29T23:06:28.722Z,100050.84
2023-01-29T23:08:57.418Z,100050.81
2023-01-29T23:11:26.204Z,100050.81
2023-01-29T23:13:57.517Z,100043.19
2023-01-29T23:16:28.913Z,100035.59
2023-01-29T23:18:58.277Z,100032.25
2023-01-29T23:21:28.618Z,100039.78
2023-01-29T23:23:58.398Z,100050.72
2023-01-29T23:26:45.883Z,100049.09
2023-01-29T23:29:16.084Z,100041.50
2023-01-29T23:31:44.776Z,100042.28
2023-01-29T23:34:13.765Z,100028.75
2023-01-29T23:36:43.414Z,100022.81
2023-01-29T23:39:12.329Z,99995.78
2023-01-29T23:41:41.012Z,100001.66
2023-01-29T23:44:09.919Z,100001.66
2023-01-29T23:46:40.370Z,100002.53
2023-01-29T23:49:09.545Z,100021.91
2023-01-29T23:51:38.304Z,100013.47
2023-01-29T23:54:07.519Z,100012.53
2023-01-29T23:56:36.137Z,100012.53
2023-01-29T23:59:04.941Z,100018.41
